createdAt,value
2018-11-11T00:01:02.924Z,4.27
2018-11-11T00:03:31.208Z,3.90
2018-11-11T00:05:59.462Z,3.90
2018-11-11T00:08:27.702Z,3.23
2018-11-11T00:10:55.984Z,2.97
2018-11-11T00:13:24.258Z,2.57
2018-11-11T00:15:52.548Z,2.83
2018-11-11T00:18:20.798Z,3.13
2018-11-11T00:20:49.047Z,2.70
2018-11-11T00:23:17.453Z,2.67
2018-11-11T00:25:45.699Z,2.60
2018-11-11T00:28:13.937Z,2.30
2018-11-11T00:30:42.218Z,2.83
2018-11-11T00:33:10.437Z,2.50
2018-11-11T00:35:38.731Z,2.67
2018-11-11T00:38:06.974Z,2.30
2018-11-11T00:40:35.252Z,2.70
2018-11-11T00:43:03.561Z,2.67
2018-11-11T00:45:31.822Z,2.27
2018-11-11T00:48:00.090Z,2.77
2018-11-11T00:50:28.341Z,2.30
2018-11-11T00:52:56.589Z,2.30
2018-11-11T00:55:24.920Z,2.30
2018-11-11T00:57:53.122Z,2.43
2018-11-11T01:00:21.390Z,2.33
2018-11-11T01:02:49.657Z,2.23
2018-11-11T01:05:17.877Z,2.33
2018-11-11T01:07:46.130Z,2.23
2018-11-11T01:10:15.548Z,2.30
2018-11-11T01:12:43.980Z,2.50
2018-11-11T01:15:13.524Z,2.37
2018-11-11T01:17:41.781Z,2.13
2018-11-11T01:20:11.846Z,2.40
2018-11-11T01:22:40.072Z,2.40
2018-11-11T01:25:10.284Z,2.50
2018-11-11T01:27:38.532Z,2.50
2018-11-11T01:30:07.147Z,2.60
2018-11-11T01:32:35.389Z,2.60
2018-11-11T01:35:03.685Z,2.47
2018-11-11T01:37:31.916Z,2.20
2018-11-11T01:40:00.160Z,2.20
2018-11-11T01:42:28.385Z,1.80
2018-11-11T01:44:57.330Z,2.23
2018-11-11T01:47:25.564Z,2.33
2018-11-11T01:49:53.802Z,2.57
2018-11-11T01:52:22.023Z,2.73
2018-11-11T01:54:50.257Z,2.10
2018-11-11T01:57:18.505Z,2.30
2018-11-11T01:59:46.714Z,2.30
2018-11-11T02:02:14.925Z,2.37
2018-11-11T02:04:43.230Z,2.30
2018-11-11T02:07:11.595Z,2.00
2018-11-11T02:09:39.847Z,1.90
2018-11-11T02:12:08.043Z,1.73
2018-11-11T02:14:36.372Z,2.20
2018-11-11T02:17:04.611Z,2.47
2018-11-11T02:19:32.818Z,2.53
2018-11-11T02:22:01.049Z,2.10
2018-11-11T02:24:29.257Z,2.00
2018-11-11T02:26:57.493Z,2.43
2018-11-11T02:29:25.718Z,1.93
2018-11-11T02:31:53.965Z,1.90
2018-11-11T02:34:22.201Z,2.03
2018-11-11T02:36:50.452Z,2.50
2018-11-11T02:39:18.705Z,1.70
2018-11-11T02:41:46.963Z,1.97
2018-11-11T02:44:15.242Z,2.20
2018-11-11T02:46:43.485Z,2.00
2018-11-11T02:49:11.741Z,2.10
2018-11-11T02:51:39.972Z,2.10
2018-11-11T02:54:08.220Z,1.80
2018-11-11T02:56:36.469Z,2.20
2018-11-11T02:59:04.730Z,2.33
2018-11-11T03:01:32.990Z,1.90
2018-11-11T03:04:01.250Z,2.00
2018-11-11T03:06:29.512Z,2.13
2018-11-11T03:08:57.728Z,2.20
2018-11-11T03:11:25.978Z,2.03
2018-11-11T03:13:54.274Z,1.90
2018-11-11T03:16:22.515Z,2.27
2018-11-11T03:18:50.759Z,2.20
2018-11-11T03:21:20.066Z,3.10
2018-11-11T03:23:48.345Z,2.00
2018-11-11T03:26:16.581Z,2.00
2018-11-11T03:28:44.841Z,1.80
2018-11-11T03:31:13.108Z,2.10
2018-11-11T03:33:41.414Z,1.80
2018-11-11T03:36:09.711Z,2.23
2018-11-11T03:38:37.965Z,2.93
2018-11-11T03:41:06.181Z,1.90
2018-11-11T03:43:34.466Z,1.70
2018-11-11T03:46:02.758Z,1.90
2018-11-11T03:48:30.986Z,1.87
2018-11-11T03:50:59.343Z,1.50
2018-11-11T03:53:27.562Z,1.77
2018-11-11T03:55:55.807Z,2.63
2018-11-11T03:58:24.045Z,2.03
2018-11-11T04:00:52.407Z,1.60
2018-11-11T04:03:20.643Z,2.13
2018-11-11T04:05:48.859Z,1.80
2018-11-11T04:08:17.187Z,1.90
2018-11-11T04:10:45.422Z,2.13
2018-11-11T04:13:13.715Z,1.90
2018-11-11T04:15:41.958Z,1.70
2018-11-11T04:18:10.205Z,1.73
2018-11-11T04:20:38.430Z,1.50
2018-11-11T04:23:06.677Z,1.87
2018-11-11T04:25:34.905Z,2.03
2018-11-11T04:28:03.204Z,1.83
2018-11-11T04:30:31.597Z,1.63
2018-11-11T04:32:59.814Z,1.80
2018-11-11T04:35:28.069Z,1.37
2018-11-11T04:37:56.346Z,2.43
2018-11-11T04:40:24.591Z,1.43
2018-11-11T04:42:52.821Z,1.63
2018-11-11T04:45:21.094Z,1.60
2018-11-11T04:47:49.359Z,1.67
2018-11-11T04:50:18.219Z,1.40
2018-11-11T04:52:47.070Z,2.70
2018-11-11T04:55:15.353Z,2.17
2018-11-11T04:57:43.746Z,2.20
2018-11-11T05:00:13.089Z,1.80
2018-11-11T05:02:41.585Z,1.93
2018-11-11T05:05:11.022Z,1.63
2018-11-11T05:07:39.573Z,1.83
2018-11-11T05:10:08.003Z,1.93
2018-11-11T05:12:36.397Z,1.83
2018-11-11T05:15:05.141Z,1.60
2018-11-11T05:17:33.373Z,1.70
2018-11-11T05:20:01.724Z,2.10
2018-11-11T05:22:29.965Z,2.00
2018-11-11T05:24:58.222Z,1.73
2018-11-11T05:27:26.486Z,2.07
2018-11-11T05:29:54.741Z,1.47
2018-11-11T05:32:22.999Z,1.80
2018-11-11T05:34:51.242Z,2.17
2018-11-11T05:37:19.497Z,1.73
2018-11-11T05:39:47.730Z,1.77
2018-11-11T05:42:15.978Z,1.63
2018-11-11T05:44:44.276Z,1.70
2018-11-11T05:47:12.903Z,2.53
2018-11-11T05:49:41.142Z,1.73
2018-11-11T05:52:09.393Z,1.60
2018-11-11T05:54:37.650Z,1.40
2018-11-11T05:57:05.900Z,1.87
2018-11-11T05:59:34.261Z,1.87
2018-11-11T06:02:02.552Z,2.10
2018-11-11T06:04:30.820Z,1.63
2018-11-11T06:06:59.057Z,1.77
2018-11-11T06:09:27.339Z,2.00
2018-11-11T06:11:55.573Z,1.77
2018-11-11T06:14:23.899Z,1.93
2018-11-11T06:16:52.163Z,2.10
2018-11-11T06:19:20.452Z,2.00
2018-11-11T06:21:48.728Z,2.50
2018-11-11T06:24:16.994Z,2.30
2018-11-11T06:26:45.305Z,2.50
2018-11-11T06:29:13.606Z,1.57
2018-11-11T06:31:41.861Z,1.83
2018-11-11T06:34:10.197Z,1.67
2018-11-11T06:36:38.427Z,1.30
2018-11-11T06:39:08.178Z,1.60
2018-11-11T06:41:36.447Z,1.57
2018-11-11T06:44:04.715Z,2.20
2018-11-11T06:46:32.962Z,1.67
2018-11-11T06:49:01.221Z,2.20
2018-11-11T06:51:29.514Z,1.43
2018-11-11T06:53:57.814Z,1.57
2018-11-11T06:56:26.225Z,1.50
2018-11-11T06:58:54.507Z,2.03
2018-11-11T07:01:22.818Z,2.10
2018-11-11T07:03:56.759Z,2.03
2018-11-11T07:06:25.346Z,1.80
2018-11-11T07:08:53.720Z,1.77
2018-11-11T07:11:21.984Z,1.73
2018-11-11T07:13:50.300Z,2.20
2018-11-11T07:16:18.553Z,2.00
2018-11-11T07:18:47.759Z,1.80
2018-11-11T07:21:16.660Z,1.97
2018-11-11T07:23:45.231Z,2.00
2018-11-11T07:26:13.554Z,1.80
2018-11-11T07:28:41.809Z,1.97
2018-11-11T07:31:10.142Z,1.73
2018-11-11T07:33:38.783Z,2.40
2018-11-11T07:36:07.895Z,1.77
2018-11-11T07:38:36.192Z,2.20
2018-11-11T07:41:04.589Z,2.27
2018-11-11T07:43:32.856Z,1.67
2018-11-11T07:46:01.110Z,1.67
2018-11-11T07:48:29.559Z,1.83
2018-11-11T07:50:57.827Z,2.10
2018-11-11T07:53:26.076Z,1.90
2018-11-11T07:55:54.550Z,2.03
2018-11-11T07:58:22.818Z,2.27
2018-11-11T08:00:51.024Z,2.20
2018-11-11T08:03:19.309Z,1.53
2018-11-11T08:05:47.570Z,1.87
2018-11-11T08:08:15.887Z,1.60
2018-11-11T08:10:55.433Z,2.00
2018-11-11T08:13:23.692Z,1.70
2018-11-11T08:15:52.887Z,1.87
2018-11-11T08:18:21.181Z,1.30
2018-11-11T08:20:49.569Z,2.13
2018-11-11T08:23:17.823Z,1.80
2018-11-11T08:25:46.081Z,1.60
2018-11-11T08:28:14.376Z,1.70
2018-11-11T08:30:42.662Z,1.40
2018-11-11T08:33:10.978Z,1.90
2018-11-11T08:35:39.308Z,1.47
2018-11-11T08:38:07.617Z,1.50
2018-11-11T08:40:35.985Z,1.20
2018-11-11T08:43:04.337Z,1.37
2018-11-11T08:45:32.607Z,1.50
2018-11-11T08:48:00.907Z,1.37
2018-11-11T08:50:29.159Z,2.23
2018-11-11T08:52:57.445Z,2.17
2018-11-11T08:55:25.761Z,1.60
2018-11-11T08:57:54.058Z,1.50
2018-11-11T09:00:22.307Z,1.60
2018-11-11T09:02:50.564Z,1.40
2018-11-11T09:05:18.820Z,1.30
2018-11-11T09:07:47.053Z,1.57
2018-11-11T09:10:15.517Z,1.60
2018-11-11T09:12:43.775Z,1.70
2018-11-11T09:15:13.191Z,1.30
2018-11-11T09:17:41.796Z,1.13
2018-11-11T09:20:10.633Z,1.63
2018-11-11T09:22:38.912Z,1.20
2018-11-11T09:25:07.974Z,1.67
2018-11-11T09:27:36.227Z,1.40
2018-11-11T09:30:05.202Z,1.33
2018-11-11T09:32:33.508Z,1.23
2018-11-11T09:35:01.850Z,1.30
2018-11-11T09:37:30.066Z,1.03
2018-11-11T09:39:58.317Z,1.20
2018-11-11T09:42:26.609Z,1.40
2018-11-11T09:44:54.824Z,1.23
2018-11-11T09:47:23.124Z,0.90
2018-11-11T09:49:51.434Z,1.20
2018-11-11T09:52:19.953Z,0.90
2018-11-11T09:54:48.238Z,0.90
2018-11-11T09:57:16.538Z,1.13
2018-11-11T09:59:44.862Z,1.40
2018-11-11T10:02:13.296Z,1.00
2018-11-11T10:04:50.939Z,1.53
2018-11-11T10:07:23.711Z,1.17
2018-11-11T10:09:59.935Z,1.30
2018-11-11T10:12:33.579Z,1.70
2018-11-11T10:15:17.042Z,1.40
2018-11-11T10:17:54.235Z,1.33
2018-11-11T10:20:29.822Z,1.20
2018-11-11T10:23:03.208Z,1.30
2018-11-11T10:25:36.197Z,1.10
2018-11-11T10:28:11.670Z,1.30
2018-11-11T10:30:52.233Z,0.90
2018-11-11T10:35:32.486Z,0.80
2018-11-11T10:38:03.898Z,1.30
2018-11-11T10:41:02.871Z,1.30
2018-11-11T10:44:02.397Z,1.10
2018-11-11T10:46:36.346Z,1.57
2018-11-11T10:49:06.173Z,1.00
2018-11-11T10:51:34.619Z,1.00
2018-11-11T10:54:03.139Z,1.73
2018-11-11T10:56:31.459Z,1.30
2018-11-11T10:58:59.894Z,1.40
2018-11-11T11:01:35.289Z,0.90
2018-11-11T11:04:05.343Z,1.23
2018-11-11T11:06:39.071Z,0.90
2018-11-11T11:09:13.930Z,1.10
2018-11-11T11:11:43.266Z,1.27
2018-11-11T11:14:11.949Z,1.40
2018-11-11T11:16:40.418Z,1.60
2018-11-11T11:19:08.762Z,1.10
2018-11-11T11:21:37.953Z,1.20
2018-11-11T11:24:06.402Z,1.23
2018-11-11T11:26:34.695Z,1.03
2018-11-11T11:29:03.067Z,1.20
2018-11-11T11:31:31.463Z,1.03
2018-11-11T11:33:59.749Z,1.20
2018-11-11T11:36:28.022Z,1.23
2018-11-11T11:38:56.492Z,1.30
2018-11-11T11:41:25.000Z,2.07
2018-11-11T11:43:53.336Z,2.00
2018-11-11T11:46:21.541Z,1.53
2018-11-11T11:48:49.929Z,1.40
2018-11-11T11:51:18.397Z,1.03
2018-11-11T11:53:46.874Z,1.13
2018-11-11T11:56:15.272Z,1.47
2018-11-11T11:58:43.610Z,1.40
2018-11-11T12:01:12.043Z,1.37
2018-11-11T12:03:40.414Z,1.50
2018-11-11T12:06:08.787Z,1.40
2018-11-11T12:08:37.153Z,1.40
2018-11-11T12:11:05.675Z,1.40
2018-11-11T12:13:34.011Z,1.57
2018-11-11T12:16:02.659Z,1.40
2018-11-11T12:18:30.985Z,1.90
2018-11-11T12:20:59.293Z,1.50
2018-11-11T12:23:27.634Z,1.33
2018-11-11T12:26:00.008Z,1.40
2018-11-11T12:28:28.424Z,1.40
2018-11-11T12:30:56.866Z,1.73
2018-11-11T12:33:25.323Z,1.70
2018-11-11T12:35:53.777Z,1.50
2018-11-11T12:38:22.122Z,1.50
2018-11-11T12:40:50.484Z,1.83
2018-11-11T12:43:18.950Z,1.60
2018-11-11T12:45:47.297Z,1.47
2018-11-11T12:48:15.753Z,1.30
2018-11-11T12:50:44.146Z,1.57
2018-11-11T12:53:12.592Z,1.67
2018-11-11T12:55:40.881Z,1.93
2018-11-11T12:58:09.178Z,2.07
2018-11-11T13:00:37.575Z,1.57
2018-11-11T13:03:05.830Z,1.53
2018-11-11T13:05:34.115Z,1.70
2018-11-11T13:08:02.539Z,1.50
2018-11-11T13:10:30.864Z,1.40
2018-11-11T13:12:59.214Z,1.67
2018-11-11T13:15:27.600Z,2.07
2018-11-11T13:17:56.001Z,1.77
2018-11-11T13:20:24.302Z,1.80
2018-11-11T13:22:52.787Z,1.77
2018-11-11T13:25:20.884Z,1.70
2018-11-11T13:27:51.292Z,2.07
2018-11-11T13:30:19.550Z,1.97
2018-11-11T13:32:47.910Z,1.80
2018-11-11T13:35:16.742Z,1.70
2018-11-11T13:37:46.044Z,1.60
2018-11-11T13:40:18.617Z,1.80
2018-11-11T13:42:47.005Z,2.20
2018-11-11T13:45:18.417Z,2.23
2018-11-11T13:47:48.524Z,1.67
2018-11-11T13:50:18.505Z,1.63
2018-11-11T13:52:47.537Z,1.93
2018-11-11T13:55:16.523Z,1.73
2018-11-11T13:57:45.468Z,2.40
2018-11-11T14:00:31.486Z,1.57
2018-11-11T14:02:59.887Z,1.97
2018-11-11T14:05:28.190Z,1.73
2018-11-11T14:07:57.806Z,1.70
2018-11-11T14:10:26.204Z,2.07
2018-11-11T14:12:54.565Z,1.97
2018-11-11T14:15:24.111Z,2.03
2018-11-11T14:17:53.035Z,2.47
2018-11-11T14:20:22.669Z,2.50
2018-11-11T14:25:43.945Z,2.10
2018-11-11T14:28:12.379Z,1.90
2018-11-11T14:30:40.787Z,2.17
2018-11-11T14:33:09.165Z,2.07
2018-11-11T14:35:37.469Z,2.07
2018-11-11T14:38:06.281Z,1.97
2018-11-11T14:40:34.756Z,2.33
2018-11-11T14:43:03.061Z,2.20
2018-11-11T14:45:31.351Z,2.00
2018-11-11T14:47:59.685Z,2.80
2018-11-11T14:50:27.988Z,2.00
2018-11-11T14:52:56.371Z,2.17
2018-11-11T14:55:27.749Z,2.43
2018-11-11T14:57:58.526Z,2.83
2018-11-11T15:00:35.553Z,2.70
2018-11-11T15:03:09.082Z,2.57
2018-11-11T15:05:37.469Z,3.13
2018-11-11T15:08:09.372Z,2.57
2018-11-11T15:10:37.731Z,2.70
2018-11-11T15:13:06.667Z,2.43
2018-11-11T15:15:34.990Z,2.57
2018-11-11T15:18:04.427Z,2.50
2018-11-11T15:20:33.166Z,2.40
2018-11-11T15:23:01.487Z,2.13
2018-11-11T15:25:50.062Z,1.87
2018-11-11T15:28:18.339Z,2.20
2018-11-11T15:30:46.821Z,1.93
2018-11-11T15:33:15.009Z,2.07
2018-11-11T15:35:43.297Z,2.07
2018-11-11T15:38:13.309Z,1.93
2018-11-11T15:40:41.546Z,2.60
2018-11-11T15:43:09.838Z,3.03
2018-11-11T15:45:38.172Z,2.60
2018-11-11T15:48:07.167Z,2.43
2018-11-11T15:50:36.193Z,2.57
2018-11-11T15:53:05.718Z,2.40
2018-11-11T15:55:35.220Z,2.40
2018-11-11T15:58:03.584Z,2.53
2018-11-11T16:00:33.170Z,2.87
2018-11-11T16:03:01.599Z,2.67
2018-11-11T16:05:29.876Z,2.85
2018-11-11T16:07:58.841Z,2.70
2018-11-11T16:10:28.386Z,2.90
2018-11-11T16:12:56.814Z,2.93
2018-11-11T16:15:27.806Z,2.67
2018-11-11T16:17:58.724Z,3.53
2018-11-11T16:20:27.969Z,3.07
2018-11-11T16:22:57.253Z,3.37
2018-11-11T16:25:26.127Z,3.77
2018-11-11T16:27:54.994Z,2.80
2018-11-11T16:33:01.003Z,2.90
2018-11-11T16:35:30.062Z,3.50
2018-11-11T16:37:58.880Z,3.00
2018-11-11T16:40:28.699Z,3.30
2018-11-11T16:42:57.307Z,3.20
2018-11-11T16:45:27.084Z,3.00
2018-11-11T16:47:55.587Z,3.43
2018-11-11T16:50:27.250Z,2.97
2018-11-11T16:52:56.854Z,2.63
2018-11-11T16:55:26.984Z,2.83
2018-11-11T16:57:56.358Z,2.67
2018-11-11T17:00:26.870Z,2.80
2018-11-11T17:02:55.748Z,2.80
2018-11-11T17:05:25.281Z,2.73
2018-11-11T17:07:54.024Z,2.90
2018-11-11T17:10:26.697Z,2.73
2018-11-11T17:12:56.076Z,2.43
2018-11-11T17:15:26.645Z,2.90
2018-11-11T17:17:55.367Z,2.73
2018-11-11T17:20:24.773Z,2.37
2018-11-11T17:22:54.117Z,2.93
2018-11-11T17:25:23.444Z,2.33
2018-11-11T17:27:51.781Z,2.77
2018-11-11T17:30:21.466Z,2.73
2018-11-11T17:32:50.546Z,2.23
2018-11-11T17:35:19.054Z,2.60
2018-11-11T17:37:47.745Z,2.47
2018-11-11T17:40:20.217Z,3.80
2018-11-11T17:42:49.628Z,2.63
2018-11-11T17:45:18.186Z,2.73
2018-11-11T17:47:47.037Z,3.07
2018-11-11T17:50:18.199Z,2.40
2018-11-11T17:52:46.466Z,2.53
2018-11-11T17:55:16.135Z,3.10
2018-11-11T17:57:44.862Z,2.50
2018-11-11T18:00:14.697Z,2.47
2018-11-11T18:02:43.121Z,2.50
2018-11-11T18:05:12.622Z,3.52
2018-11-11T18:07:40.946Z,3.13
2018-11-11T18:10:11.489Z,3.10
2018-11-11T18:12:39.911Z,3.67
2018-11-11T18:15:09.378Z,3.30
2018-11-11T18:17:38.074Z,3.87
2018-11-11T18:20:09.972Z,3.70
2018-11-11T18:22:38.388Z,3.23
2018-11-11T18:25:06.762Z,3.97
2018-11-11T18:27:36.086Z,3.90
2018-11-11T18:30:05.215Z,4.43
2018-11-11T18:32:33.473Z,5.70
2018-11-11T18:35:01.759Z,5.93
2018-11-11T18:37:30.098Z,4.20
2018-11-11T18:39:58.476Z,3.60
2018-11-11T18:42:26.926Z,3.57
2018-11-11T18:44:55.218Z,3.97
2018-11-11T18:47:24.054Z,3.80
2018-11-11T18:49:52.442Z,4.20
2018-11-11T18:52:20.963Z,3.67
2018-11-11T18:57:42.569Z,3.20
2018-11-11T19:00:16.317Z,3.67
2018-11-11T19:02:45.679Z,3.27
2018-11-11T19:05:16.007Z,3.30
2018-11-11T19:07:45.597Z,3.43
2018-11-11T19:10:16.534Z,3.30
2018-11-11T19:12:45.993Z,2.67
2018-11-11T19:15:15.238Z,2.97
2018-11-11T19:17:44.406Z,2.73
2018-11-11T19:20:13.855Z,2.90
2018-11-11T19:22:42.251Z,3.20
2018-11-11T19:25:12.929Z,3.43
2018-11-11T19:27:42.033Z,4.10
2018-11-11T19:30:11.375Z,4.30
2018-11-11T19:32:41.225Z,4.80
2018-11-11T19:35:10.625Z,4.77
2018-11-11T19:37:39.147Z,5.20
2018-11-11T19:40:11.245Z,4.13
2018-11-11T19:42:40.392Z,3.90
2018-11-11T19:45:10.082Z,2.87
2018-11-11T19:47:39.183Z,3.40
2018-11-11T19:50:08.648Z,3.27
2018-11-11T19:52:37.169Z,2.80
2018-11-11T19:55:18.067Z,2.63
2018-11-11T19:57:46.960Z,2.37
2018-11-11T20:00:19.280Z,2.70
2018-11-11T20:02:48.532Z,2.67
2018-11-11T20:05:17.532Z,2.50
2018-11-11T20:07:47.311Z,2.37
2018-11-11T20:10:16.870Z,2.10
2018-11-11T20:12:53.451Z,2.43
2018-11-11T20:15:28.908Z,2.00
2018-11-11T20:17:59.000Z,1.80
2018-11-11T20:20:37.599Z,1.40
2018-11-11T20:23:10.093Z,2.30
2018-11-11T20:25:44.394Z,1.70
2018-11-11T20:28:15.326Z,1.70
2018-11-11T20:30:44.448Z,1.93
2018-11-11T20:33:13.064Z,2.17
2018-11-11T20:35:41.506Z,2.52
2018-11-11T20:38:09.944Z,2.40
2018-11-11T20:40:38.321Z,1.77
2018-11-11T20:43:06.735Z,1.67
2018-11-11T20:45:35.315Z,2.13
2018-11-11T20:48:03.984Z,2.00
2018-11-11T20:50:34.348Z,1.70
2018-11-11T20:53:06.444Z,1.70
2018-11-11T20:55:35.633Z,2.07
2018-11-11T20:58:04.772Z,1.70
2018-11-11T21:00:36.773Z,1.60
2018-11-11T21:03:06.567Z,1.80
2018-11-11T21:05:41.530Z,1.87
2018-11-11T21:08:10.812Z,1.83
2018-11-11T21:10:39.448Z,2.00
2018-11-11T21:13:08.655Z,1.93
2018-11-11T21:15:37.636Z,1.77
2018-11-11T21:18:08.759Z,2.40
2018-11-11T21:20:39.068Z,2.23
2018-11-11T21:23:07.510Z,1.70
2018-11-11T21:25:35.901Z,1.67
2018-11-11T21:28:04.302Z,1.50
2018-11-11T21:30:33.435Z,1.63
2018-11-11T21:33:01.850Z,2.50
2018-11-11T21:35:34.941Z,1.83
2018-11-11T21:38:03.352Z,1.60
2018-11-11T21:40:31.680Z,1.60
2018-11-11T21:43:01.740Z,1.73
2018-11-11T21:45:30.113Z,1.90
2018-11-11T21:47:59.754Z,1.93
2018-11-11T21:50:28.511Z,1.67
2018-11-11T21:53:07.968Z,2.33
2018-11-11T21:55:36.142Z,1.77
2018-11-11T21:58:04.598Z,1.73
2018-11-11T22:00:33.199Z,1.80
2018-11-11T22:03:01.533Z,1.90
2018-11-11T22:05:29.815Z,1.60
2018-11-11T22:07:58.253Z,1.53
2018-11-11T22:10:26.525Z,1.60
2018-11-11T22:12:54.833Z,1.53
2018-11-11T22:15:23.114Z,2.10
2018-11-11T22:17:51.676Z,1.80
2018-11-11T22:20:20.054Z,1.53
2018-11-11T22:22:48.405Z,1.70
2018-11-11T22:25:16.711Z,1.43
2018-11-11T22:27:44.993Z,1.67
2018-11-11T22:30:13.284Z,1.60
2018-11-11T22:32:41.553Z,1.90
2018-11-11T22:35:10.777Z,2.53
2018-11-11T22:37:39.345Z,2.57
2018-11-11T22:40:09.432Z,1.87
2018-11-11T22:42:37.862Z,2.00
2018-11-11T22:45:09.438Z,1.97
2018-11-11T22:47:37.766Z,2.10
2018-11-11T22:50:07.202Z,2.57
2018-11-11T22:52:35.611Z,2.13
2018-11-11T22:55:03.961Z,2.10
2018-11-11T22:57:32.317Z,2.03
2018-11-11T23:00:00.599Z,1.60
2018-11-11T23:02:28.886Z,1.53
2018-11-11T23:04:57.517Z,1.33
2018-11-11T23:07:26.470Z,1.47
2018-11-11T23:09:54.719Z,1.47
2018-11-11T23:12:23.021Z,1.43
2018-11-11T23:14:51.319Z,1.40
2018-11-11T23:17:19.578Z,1.87
2018-11-11T23:19:47.930Z,1.30
2018-11-11T23:22:16.402Z,1.30
2018-11-11T23:24:44.680Z,1.43
2018-11-11T23:27:12.992Z,1.10
2018-11-11T23:29:41.340Z,0.90
2018-11-11T23:32:09.655Z,1.13
2018-11-11T23:34:37.922Z,1.20
2018-11-11T23:37:06.244Z,1.60
2018-11-11T23:39:34.464Z,1.17
2018-11-11T23:42:02.845Z,1.27
2018-11-11T23:44:31.118Z,1.03
2018-11-11T23:46:59.393Z,0.97
2018-11-11T23:49:27.799Z,1.00
2018-11-11T23:51:56.458Z,1.50
2018-11-11T23:54:24.791Z,1.10
2018-11-11T23:56:53.049Z,1.23
2018-11-11T23:59:21.321Z,1.10
